In Rescue
 
Open Full Screen Window  High Contrast Mode
September 18, 2020 9:49 PM EDT
Weather Information
Wind Direction
  ---
Wind Speed
  00 kt (0 mph)
Wind Gust
  00 kt (0 mph)
Altimeter
30.29 in
Visibility
10 SM
Temperature
06° C
43° F
Dewpoint
03° C
37° F
Humidity
81%
1hr Rain Fall
00.00 in.
24hr Rain Fall
00.00 in.
Sky Condition
Clear
VFR

METAR KPOV 190149Z AUTO 00000KT 10SM CLR 06/03 A3029 RMK AO2 T00600025 PWINO

FAA Disclaimer: The data displayed is for advisory purposes only and is not to be used for flight planning or operations.